Time;durP1;ratioP1;P1;durP2;ratioP2;P2;SDS_P1;SDS_P2;PMS_P1;PMS_P2;Temp;Humidity;BMP_temperature;BMP_pressure;BME280_temperature;BME280_humidity;BME280_pressure;Samples;Min_cycle;Max_cycle;Signal;HPM_P1;HPM_P2
2023/12/26 00:01:48;;;;;;;3.53;1.77;;;;;;;9.39;nan;99519.53;4956834;28;20298;-79
2023/12/26 00:04:15;;;;;;;2.80;2.53;;;;;;;9.40;nan;99522.06;4950600;28;20192;-78
2023/12/26 00:06:44;;;;;;;3.45;1.38;;;;;;;9.37;nan;99509.16;4953707;28;20231;-79
2023/12/26 00:09:12;;;;;;;2.20;1.88;;;;;;;9.40;nan;99521.25;4952272;28;20440;-78
2023/12/26 00:11:42;;;;;;;2.80;1.50;;;;;;;9.40;nan;99511.59;4955011;28;20192;-79
2023/12/26 00:14:07;;;;;;;2.05;1.85;;;;;;;9.39;nan;99504.63;4952720;28;20238;-77
2023/12/26 00:16:33;;;;;;;2.53;1.60;;;;;;;9.38;nan;99508.22;4954923;28;20200;-78
2023/12/26 00:18:59;;;;;;;1.70;1.50;;;;;;;9.38;nan;99504.75;4963781;28;20192;-79
2023/12/26 00:21:24;;;;;;;1.57;1.40;;;;;;;9.36;nan;99499.59;4959276;28;20216;-78
2023/12/26 00:23:51;;;;;;;1.87;1.40;;;;;;;9.37;nan;99510.91;4961896;28;20524;-77
2023/12/26 00:26:17;;;;;;;4.70;1.80;;;;;;;9.33;nan;99510.25;4959104;28;20200;-79
2023/12/26 00:28:44;;;;;;;1.50;1.35;;;;;;;9.34;nan;99511.94;4962999;28;20203;-78
2023/12/26 00:31:09;;;;;;;3.50;2.20;;;;;;;9.39;nan;99511.66;4955214;28;20594;-80
2023/12/26 00:33:35;;;;;;;1.13;1.03;;;;;;;9.35;nan;99508.41;4962634;28;20204;-78
2023/12/26 00:36:01;;;;;;;1.53;1.43;;;;;;;9.36;nan;99514.47;4961283;28;20530;-79
2023/12/26 00:38:28;;;;;;;5.70;1.92;;;;;;;9.36;nan;99507.44;4963228;28;20451;-78
2023/12/26 00:40:54;;;;;;;2.80;1.70;;;;;;;9.38;nan;99510.00;4958333;28;20741;-79
2023/12/26 00:43:19;;;;;;;4.20;1.87;;;;;;;9.34;nan;99506.69;4953860;28;20211;-80
2023/12/26 00:45:45;;;;;;;3.57;1.80;;;;;;;9.33;nan;99498.94;4955415;28;20231;-78
2023/12/26 00:48:10;;;;;;;1.60;1.50;;;;;;;9.34;nan;99498.81;4953568;28;20230;-78
2023/12/26 00:50:41;;;;;;;2.30;1.47;;;;;;;9.34;nan;99495.38;4963366;28;20235;-79
2023/12/26 00:53:11;;;;;;;4.90;1.45;;;;;;;9.36;nan;99494.34;4964268;28;20573;-78
2023/12/26 00:55:36;;;;;;;1.93;1.20;;;;;;;9.36;nan;99493.50;4963116;28;20195;-81
2023/12/26 00:58:02;;;;;;;1.83;1.43;;;;;;;9.37;nan;99503.03;4962898;28;20206;-80
2023/12/26 01:00:28;;;;;;;5.97;1.80;;;;;;;9.36;nan;99502.22;4975694;28;20203;-77
2023/12/26 01:02:53;;;;;;;1.10;1.00;;;;;;;9.37;nan;99514.41;4959836;28;20541;-77
2023/12/26 01:05:19;;;;;;;2.58;1.30;;;;;;;9.31;nan;99506.88;4958118;28;20227;-79
2023/12/26 01:07:44;;;;;;;2.03;1.67;;;;;;;9.32;nan;99511.22;4959136;28;20253;-80
2023/12/26 01:10:10;;;;;;;1.33;1.20;;;;;;;9.34;nan;99521.59;4960024;28;20238;-79
2023/12/26 01:12:35;;;;;;;2.33;1.50;;;;;;;9.31;nan;99517.38;4959648;28;20200;-79
2023/12/26 01:15:01;;;;;;;1.93;1.17;;;;;;;9.31;nan;99517.38;4956852;28;20732;-78
2023/12/26 01:17:27;;;;;;;10.77;1.97;;;;;;;9.30;nan;99518.31;4955886;28;20200;-77
2023/12/26 01:19:52;;;;;;;2.90;1.47;;;;;;;9.29;nan;99519.25;4975309;28;20219;-80
2023/12/26 01:22:17;;;;;;;1.77;1.37;;;;;;;9.29;nan;99521.88;4960122;28;20301;-78
2023/12/26 01:24:43;;;;;;;4.17;1.73;;;;;;;9.25;nan;99528.22;4956182;28;20207;-79
2023/12/26 01:27:08;;;;;;;2.27;1.10;;;;;;;9.24;nan;99524.75;4959634;28;20212;-77
2023/12/26 01:29:36;;;;;;;2.27;1.80;;;;;;;9.24;nan;99522.16;4963537;28;20207;-78
2023/12/26 01:32:03;;;;;;;3.03;2.30;;;;;;;9.25;nan;99530.84;4976102;23;20242;-79
2023/12/26 01:34:32;;;;;;;1.88;1.27;;;;;;;9.28;nan;99533.28;4954935;28;20194;-77
2023/12/26 01:36:57;;;;;;;2.23;1.33;;;;;;;9.28;nan;99528.03;4989466;28;20214;-78
2023/12/26 01:39:27;;;;;;;3.40;1.90;;;;;;;9.29;nan;99535.00;4992036;28;21315;-77
2023/12/26 01:41:54;;;;;;;1.30;1.20;;;;;;;9.28;nan;99536.75;4988511;28;20302;-78
2023/12/26 01:44:20;;;;;;;6.77;1.90;;;;;;;9.30;nan;99531.41;4964402;28;20619;-78
2023/12/26 01:46:45;;;;;;;2.10;1.48;;;;;;;9.28;nan;99549.00;4968628;28;20807;-78
2023/12/26 01:49:11;;;;;;;3.13;2.90;;;;;;;9.24;nan;99543.13;4959745;28;20215;-78
2023/12/26 01:51:42;;;;;;;3.33;2.00;;;;;;;9.23;nan;99545.81;4972966;28;20203;-77
2023/12/26 01:54:09;;;;;;;2.10;1.50;;;;;;;9.26;nan;99550.88;4972580;28;20192;-77
2023/12/26 01:56:35;;;;;;;1.42;1.33;;;;;;;9.23;nan;99551.88;4972031;28;20199;-78
2023/12/26 01:59:03;;;;;;;1.47;1.37;;;;;;;9.23;nan;99548.44;4952329;28;20662;-78
2023/12/26 02:01:30;;;;;;;1.65;1.20;;;;;;;9.23;nan;99561.53;4951164;28;20534;-78
2023/12/26 02:03:59;;;;;;;2.33;1.35;;;;;;;9.21;nan;99556.41;4968494;28;20214;-78
2023/12/26 02:06:24;;;;;;;1.52;1.20;;;;;;;9.21;nan;99558.19;4964987;28;20287;-78
2023/12/26 02:08:50;;;;;;;2.00;1.60;;;;;;;9.22;nan;99559.88;4970755;28;20428;-78
2023/12/26 02:11:15;;;;;;;3.33;1.47;;;;;;;9.21;nan;99568.66;4970341;28;20231;-78
2023/12/26 02:13:41;;;;;;;2.53;1.30;;;;;;;9.21;nan;99566.03;4970338;28;20210;-78
2023/12/26 02:16:15;;;;;;;2.03;1.57;;;;;;;9.18;nan;99566.19;4972333;28;20206;-78
2023/12/26 02:18:41;;;;;;;2.45;1.40;;;;;;;9.19;nan;99560.03;4971298;28;20259;-78
2023/12/26 02:21:06;;;;;;;1.87;1.20;;;;;;;9.20;nan;99556.47;4970669;28;20992;-77
2023/12/26 02:23:34;;;;;;;2.10;1.30;;;;;;;9.19;nan;99558.25;4953463;28;20463;-78
2023/12/26 02:26:02;;;;;;;3.28;1.85;;;;;;;9.22;nan;99557.25;4953833;28;20386;-76
2023/12/26 02:28:29;;;;;;;2.15;1.45;;;;;;;9.19;nan;99550.41;4955806;28;20854;-77
2023/12/26 02:30:56;;;;;;;2.45;1.48;;;;;;;9.18;nan;99553.97;4961222;28;20236;-78
2023/12/26 02:33:25;;;;;;;2.60;1.50;;;;;;;9.16;nan;99544.50;4949007;28;20188;-76
2023/12/26 02:35:51;;;;;;;1.65;1.13;;;;;;;9.15;nan;99554.13;4951441;28;20589;-78
2023/12/26 02:38:17;;;;;;;2.23;1.27;;;;;;;9.15;nan;99556.75;4949837;28;20563;-78
2023/12/26 02:40:43;;;;;;;5.63;2.30;;;;;;;9.15;nan;99546.25;4949170;28;20242;-77
2023/12/26 02:43:08;;;;;;;2.35;1.30;;;;;;;9.15;nan;99558.53;4950345;28;20462;-78
2023/12/26 02:45:34;;;;;;;2.50;1.20;;;;;;;9.12;nan;99559.53;4952242;28;20212;-78
2023/12/26 02:48:02;;;;;;;1.63;1.00;;;;;;;9.13;nan;99552.53;4953338;28;20192;-78
2023/12/26 02:50:28;;;;;;;1.80;1.38;;;;;;;9.12;nan;99558.69;4950752;28;20211;-78
2023/12/26 02:52:53;;;;;;;2.83;2.00;;;;;;;9.09;nan;99557.94;4957484;28;20204;-78
2023/12/26 02:55:19;;;;;;;3.67;1.50;;;;;;;9.11;nan;99565.72;4947574;28;20834;-78
2023/12/26 02:57:44;;;;;;;4.72;2.30;;;;;;;9.08;nan;99561.50;4952390;28;20208;-78
2023/12/26 03:00:12;;;;;;;1.50;1.40;;;;;;;9.06;nan;99563.38;4950461;28;20887;-78
2023/12/26 03:02:37;;;;;;;1.10;1.00;;;;;;;9.06;nan;99562.53;4969256;28;20294;-78
2023/12/26 03:05:03;;;;;;;1.37;1.10;;;;;;;9.04;nan;99565.22;4953178;28;20200;-77
2023/12/26 03:07:32;;;;;;;1.83;1.37;;;;;;;8.99;nan;99569.91;4955279;28;20222;-79
2023/12/26 03:09:57;;;;;;;1.60;1.50;;;;;;;9.02;nan;99567.13;4970195;28;20555;-78
2023/12/26 03:12:23;;;;;;;1.50;1.30;;;;;;;9.00;nan;99562.91;4957002;28;20347;-78
2023/12/26 03:14:49;;;;;;;2.50;1.13;;;;;;;9.01;nan;99573.25;4956044;28;20686;-78
2023/12/26 03:17:14;;;;;;;4.53;1.77;;;;;;;8.99;nan;99575.16;4958414;28;20827;-79
2023/12/26 03:19:40;;;;;;;1.63;1.37;;;;;;;9.02;nan;99579.38;4954024;28;20254;-78
2023/12/26 03:22:06;;;;;;;2.70;1.80;;;;;;;8.98;nan;99570.81;4953969;28;20592;-78
2023/12/26 03:24:31;;;;;;;1.52;1.35;;;;;;;9.00;nan;99565.50;4959920;28;20197;-77
2023/12/26 03:26:57;;;;;;;5.67;1.60;;;;;;;9.02;nan;99567.13;4970661;28;20192;-78
2023/12/26 03:29:22;;;;;;;4.13;1.53;;;;;;;8.99;nan;99571.66;4951331;28;20212;-76
2023/12/26 03:31:49;;;;;;;6.00;1.30;;;;;;;9.02;nan;99563.66;4953272;28;20224;-78
2023/12/26 03:34:15;;;;;;;4.93;1.95;;;;;;;9.02;nan;99569.72;4953027;28;20319;-77
2023/12/26 03:36:45;;;;;;;2.03;1.63;;;;;;;9.01;nan;99573.25;4952382;28;20251;-77
2023/12/26 03:39:13;;;;;;;2.65;1.50;;;;;;;9.01;nan;99572.44;4957271;28;20918;-78
2023/12/26 03:41:39;;;;;;;2.90;1.67;;;;;;;8.98;nan;99568.22;4951163;28;20319;-77
2023/12/26 03:44:06;;;;;;;2.33;1.47;;;;;;;9.01;nan;99578.50;4953415;28;20222;-78
2023/12/26 03:46:31;;;;;;;3.28;1.40;;;;;;;8.98;nan;99576.06;4951243;28;20471;-78
2023/12/26 03:48:57;;;;;;;3.03;1.70;;;;;;;9.00;nan;99578.63;4951917;28;20211;-78
2023/12/26 03:51:22;;;;;;;1.83;1.33;;;;;;;8.99;nan;99580.41;4952733;28;20583;-77
2023/12/26 03:53:48;;;;;;;5.23;1.70;;;;;;;8.98;nan;99580.47;4952105;28;20456;-78
2023/12/26 03:56:13;;;;;;;2.77;1.30;;;;;;;8.97;nan;99579.63;4965095;28;20204;-77
2023/12/26 03:58:39;;;;;;;3.73;1.83;;;;;;;8.95;nan;99575.41;4952292;28;20210;-77
2023/12/26 04:01:05;;;;;;;1.15;0.93;;;;;;;8.93;nan;99580.72;4956522;28;20219;-78
2023/12/26 04:03:32;;;;;;;2.07;1.30;;;;;;;8.94;nan;99585.06;4954464;28;20200;-77
2023/12/26 04:05:58;;;;;;;7.88;6.68;;;;;;;8.91;nan;99574.75;4968883;28;20700;-78
2023/12/26 04:08:24;;;;;;;4.82;1.80;;;;;;;8.92;nan;99572.97;4952644;28;20482;-78
2023/12/26 04:10:49;;;;;;;3.60;1.33;;;;;;;8.88;nan;99572.28;4953094;28;20778;-78
2023/12/26 04:13:15;;;;;;;1.30;1.20;;;;;;;8.89;nan;99583.63;4951388;28;20203;-78
2023/12/26 04:15:41;;;;;;;4.47;1.77;;;;;;;8.86;nan;99587.25;4951786;28;20722;-77
2023/12/26 04:18:07;;;;;;;5.28;1.50;;;;;;;8.85;nan;99586.41;4967449;28;20237;-78
2023/12/26 04:20:33;;;;;;;3.27;1.90;;;;;;;8.85;nan;99589.00;4954033;28;20364;-78
2023/12/26 04:22:58;;;;;;;2.10;1.53;;;;;;;8.88;nan;99588.00;4954628;28;20533;-78
2023/12/26 04:25:24;;;;;;;4.83;1.70;;;;;;;8.87;nan;99586.31;4969185;28;20203;-78
2023/12/26 04:27:54;;;;;;;3.97;1.80;;;;;;;8.86;nan;99592.50;4955125;28;20195;-78
2023/12/26 04:30:19;;;;;;;2.20;1.48;;;;;;;8.84;nan;99591.75;4955231;28;20310;-78
2023/12/26 04:32:45;;;;;;;2.57;1.70;;;;;;;8.85;nan;99596.88;4955348;28;20913;-79
2023/12/26 04:35:11;;;;;;;3.17;1.80;;;;;;;8.85;nan;99601.28;4951129;28;20199;-78
2023/12/26 04:37:37;;;;;;;2.80;1.70;;;;;;;8.84;nan;99603.06;4956954;28;20444;-78
2023/12/26 04:40:02;;;;;;;2.60;1.30;;;;;;;8.86;nan;99606.44;4965905;28;20485;-78
2023/12/26 04:42:28;;;;;;;2.10;1.33;;;;;;;8.88;nan;99608.13;4954953;28;20262;-79
2023/12/26 04:44:56;;;;;;;1.53;1.07;;;;;;;8.88;nan;99608.94;4963727;28;20767;-79
2023/12/26 04:47:21;;;;;;;2.13;1.90;;;;;;;8.89;nan;99613.28;4955975;28;20195;-78
2023/12/26 04:49:47;;;;;;;1.40;1.20;;;;;;;8.89;nan;99602.81;4957350;28;20211;-79
2023/12/26 04:52:12;;;;;;;1.40;1.30;;;;;;;8.89;nan;99599.34;4956208;28;20211;-78
2023/12/26 04:54:39;;;;;;;1.90;1.70;;;;;;;8.91;nan;99602.69;4949204;28;20758;-78
2023/12/26 04:57:04;;;;;;;5.63;1.73;;;;;;;8.94;nan;99599.91;4952784;28;20936;-78
2023/12/26 04:59:30;;;;;;;3.07;1.53;;;;;;;8.94;nan;99606.00;4968275;28;20574;-77
2023/12/26 05:01:55;;;;;;;2.00;1.47;;;;;;;8.94;nan;99613.00;4954354;28;20429;-77
2023/12/26 05:04:21;;;;;;;5.73;1.60;;;;;;;8.95;nan;99610.31;4964978;28;20962;-77
2023/12/26 05:06:46;;;;;;;4.90;1.40;;;;;;;8.96;nan;99616.38;4950132;28;20727;-78
2023/12/26 05:09:15;;;;;;;2.17;1.60;;;;;;;8.96;nan;99619.00;4956261;28;20294;-78
2023/12/26 05:11:41;;;;;;;2.10;1.63;;;;;;;9.01;nan;99624.81;4966644;28;20461;-78
2023/12/26 05:14:06;;;;;;;5.37;1.33;;;;;;;9.01;nan;99624.81;4956542;28;20202;-77
2023/12/26 05:16:32;;;;;;;2.40;1.50;;;;;;;8.99;nan;99627.56;4971215;28;20291;-78
2023/12/26 05:18:57;;;;;;;2.50;1.63;;;;;;;8.98;nan;99625.84;4962186;28;20200;-78
2023/12/26 05:21:23;;;;;;;2.97;1.70;;;;;;;8.98;nan;99631.09;4952023;28;20207;-77
2023/12/26 05:23:49;;;;;;;4.47;1.80;;;;;;;8.98;nan;99625.00;4970819;28;20251;-80
2023/12/26 05:26:15;;;;;;;1.43;1.33;;;;;;;8.99;nan;99634.53;4952642;28;20204;-78
2023/12/26 05:28:41;;;;;;;5.70;1.48;;;;;;;9.02;nan;99631.78;4955320;28;20295;-78
2023/12/26 05:31:07;;;;;;;1.50;1.10;;;;;;;9.01;nan;99632.69;4955230;28;20219;-78
2023/12/26 05:33:33;;;;;;;3.00;1.97;;;;;;;9.03;nan;99639.53;4954012;28;20303;-78
2023/12/26 05:36:01;;;;;;;4.10;2.00;;;;;;;9.03;nan;99642.16;4953646;28;21160;-77
2023/12/26 05:38:27;;;;;;;3.00;1.70;;;;;;;9.05;nan;99660.41;4971757;28;20200;-78
2023/12/26 05:40:53;;;;;;;1.70;1.23;;;;;;;9.04;nan;99654.31;4953007;28;20817;-77
2023/12/26 05:43:19;;;;;;;5.20;1.60;;;;;;;9.04;nan;99653.47;4970343;28;20812;-78
2023/12/26 05:45:44;;;;;;;4.73;1.63;;;;;;;9.06;nan;99662.09;4954197;28;20646;-77
2023/12/26 05:48:10;;;;;;;2.63;1.43;;;;;;;9.05;nan;99666.50;4954543;28;20681;-77
2023/12/26 05:50:36;;;;;;;4.53;2.17;;;;;;;9.04;nan;99656.94;4950658;28;20200;-79
2023/12/26 05:53:02;;;;;;;2.90;1.10;;;;;;;9.05;nan;99658.63;4943830;28;20187;-77
2023/12/26 05:55:28;;;;;;;3.78;1.65;;;;;;;9.06;nan;99669.97;4946491;28;20208;-78
2023/12/26 05:57:53;;;;;;;3.10;1.43;;;;;;;9.04;nan;99670.03;4946371;28;20203;-79
2023/12/26 06:00:19;;;;;;;4.67;1.70;;;;;;;9.06;nan;99664.72;4945763;28;20231;-76
2023/12/26 06:02:45;;;;;;;2.80;1.30;;;;;;;9.05;nan;99674.34;4944998;28;20216;-78
2023/12/26 06:05:12;;;;;;;2.53;1.45;;;;;;;9.05;nan;99678.75;4942211;28;20200;-79
2023/12/26 06:07:38;;;;;;;2.37;2.17;;;;;;;9.06;nan;99678.66;4961963;28;20857;-80
2023/12/26 06:10:04;;;;;;;5.43;2.08;;;;;;;9.08;nan;99684.66;4964818;28;20357;-80
2023/12/26 06:12:30;;;;;;;1.83;1.35;;;;;;;9.07;nan;99689.97;4963259;28;20231;-79
2023/12/26 06:14:56;;;;;;;2.03;1.50;;;;;;;9.06;nan;99690.91;4964270;28;20231;-80
2023/12/26 06:17:22;;;;;;;2.70;1.30;;;;;;;9.06;nan;99697.00;4934948;28;20866;-80
2023/12/26 06:19:48;;;;;;;2.80;1.40;;;;;;;9.06;nan;99697.00;4954216;28;20517;-80
2023/12/26 06:22:14;;;;;;;2.65;1.40;;;;;;;9.06;nan;99696.16;4951760;28;20235;-80
2023/12/26 06:24:42;;;;;;;1.70;1.40;;;;;;;9.08;nan;99692.53;4954119;28;20363;-80
2023/12/26 06:27:08;;;;;;;3.63;2.22;;;;;;;9.09;nan;99698.59;4966377;28;20230;-80
2023/12/26 06:29:33;;;;;;;2.70;1.43;;;;;;;9.08;nan;99699.53;4970769;28;20204;-80
2023/12/26 06:31:59;;;;;;;1.80;1.60;;;;;;;9.09;nan;99696.81;4967904;28;20235;-81
2023/12/26 06:34:24;;;;;;;2.00;1.67;;;;;;;9.10;nan;99702.94;4949345;28;20199;-81
2023/12/26 06:36:50;;;;;;;3.47;1.13;;;;;;;9.11;nan;99703.78;4963792;28;20195;-80
2023/12/26 06:39:16;;;;;;;3.23;1.37;;;;;;;9.09;nan;99707.31;4935774;28;20203;-79
2023/12/26 06:41:44;;;;;;;1.97;1.40;;;;;;;9.11;nan;99709.00;4962308;28;20471;-81
2023/12/26 06:44:12;;;;;;;6.68;1.70;;;;;;;9.12;nan;99711.53;4963328;28;20605;-80
2023/12/26 06:46:42;;;;;;;3.00;1.67;;;;;;;9.13;nan;99705.38;4943849;28;20291;-80
2023/12/26 06:49:09;;;;;;;1.85;1.20;;;;;;;9.13;nan;99720.22;4949560;28;20196;-79
2023/12/26 06:51:39;;;;;;;6.72;1.80;;;;;;;9.14;nan;99724.56;4943520;28;20208;-79
2023/12/26 06:54:06;;;;;;;2.85;2.03;;;;;;;9.14;nan;99722.78;4953178;28;20329;-81
2023/12/26 06:56:32;;;;;;;2.33;1.20;;;;;;;9.13;nan;99723.72;4953939;28;20200;-80
2023/12/26 06:58:58;;;;;;;4.97;1.77;;;;;;;9.13;nan;99734.19;4953470;28;20208;-80
2023/12/26 07:01:24;;;;;;;1.20;1.10;;;;;;;9.13;nan;99728.97;4952606;28;20619;-80
2023/12/26 07:03:50;;;;;;;3.63;3.33;;;;;;;9.14;nan;99735.88;4970557;28;20647;-79
2023/12/26 07:06:15;;;;;;;2.50;1.80;;;;;;;9.14;nan;99738.50;4953609;28;20742;-80
2023/12/26 07:08:41;;;;;;;8.15;2.20;;;;;;;9.17;nan;99745.34;4948984;28;20884;-80
2023/12/26 07:11:07;;;;;;;2.57;1.53;;;;;;;9.18;nan;99744.41;4966469;28;20201;-80
2023/12/26 07:13:32;;;;;;;2.10;1.47;;;;;;;9.18;nan;99747.03;4964959;28;20200;-80
2023/12/26 07:15:58;;;;;;;2.77;1.70;;;;;;;9.19;nan;99743.50;4967546;28;20640;-80
2023/12/26 07:18:23;;;;;;;4.07;1.87;;;;;;;9.21;nan;99754.75;4967535;28;20238;-80
2023/12/26 07:20:49;;;;;;;5.73;1.77;;;;;;;9.20;nan;99756.50;4963366;28;20786;-79
2023/12/26 07:23:15;;;;;;;3.40;1.50;;;;;;;9.23;nan;99763.34;4965627;28;20211;-79
2023/12/26 07:25:42;;;;;;;5.73;1.90;;;;;;;9.23;nan;99765.97;4971288;28;20294;-80
2023/12/26 07:28:08;;;;;;;4.35;2.35;;;;;;;9.24;nan;99758.03;4965178;28;20814;-80
2023/12/26 07:30:33;;;;;;;4.80;1.40;;;;;;;9.24;nan;99765.06;4966526;28;20298;-80
2023/12/26 07:32:59;;;;;;;1.40;1.30;;;;;;;9.24;nan;99757.19;4946025;28;20494;-80
2023/12/26 07:35:25;;;;;;;2.53;1.30;;;;;;;9.26;nan;99755.31;4947041;28;20743;-80
2023/12/26 07:37:51;;;;;;;3.00;1.40;;;;;;;9.28;nan;99769.19;4948473;28;20841;-80
2023/12/26 07:40:16;;;;;;;4.23;1.87;;;;;;;9.31;nan;99774.25;4944583;28;20436;-80
2023/12/26 07:42:42;;;;;;;2.23;1.43;;;;;;;9.34;nan;99762.75;4948984;28;20489;-81
2023/12/26 07:45:08;;;;;;;4.38;1.90;;;;;;;9.35;nan;99778.41;4949703;28;20259;-80
2023/12/26 07:47:34;;;;;;;5.43;1.83;;;;;;;9.38;nan;99785.25;4949187;28;20203;-81
2023/12/26 07:50:00;;;;;;;3.50;2.13;;;;;;;9.40;nan;99773.75;4948342;28;21723;-81
2023/12/26 07:52:26;;;;;;;6.10;1.80;;;;;;;9.40;nan;99765.88;4952698;28;20455;-79
2023/12/26 07:54:52;;;;;;;3.40;1.10;;;;;;;9.40;nan;99760.63;4947386;28;20692;-80
2023/12/26 07:57:17;;;;;;;2.37;1.80;;;;;;;9.43;nan;99767.50;4948781;28;20202;-80
2023/12/26 07:59:42;;;;;;;2.30;1.10;;;;;;;9.43;nan;99752.59;4950591;28;20488;-80
2023/12/26 08:02:08;;;;;;;5.47;2.07;;;;;;;9.46;nan;99760.28;4950275;28;20716;-79
2023/12/26 08:04:34;;;;;;;9.73;1.73;;;;;;;9.45;nan;99758.59;4950843;28;20200;-79
2023/12/26 08:06:59;;;;;;;4.75;1.55;;;;;;;9.45;nan;99766.47;4950478;28;20196;-79
2023/12/26 08:09:25;;;;;;;2.77;2.43;;;;;;;9.50;nan;99753.09;4950593;28;20201;-80
2023/12/26 08:11:50;;;;;;;2.17;1.60;;;;;;;9.49;nan;99762.72;4948438;28;20227;-79
2023/12/26 08:14:17;;;;;;;3.20;2.37;;;;;;;9.52;nan;99761.72;4950707;28;20219;-80
2023/12/26 08:16:45;;;;;;;2.20;1.42;;;;;;;9.58;nan;99766.59;4946435;28;20231;-80
2023/12/26 08:19:11;;;;;;;1.42;1.33;;;;;;;9.59;nan;99773.56;4945246;28;20701;-80
2023/12/26 08:21:37;;;;;;;3.03;1.50;;;;;;;9.61;nan;99776.91;4951003;28;20213;-81
2023/12/26 08:24:15;;;;;;;4.20;1.70;;;;;;;9.64;nan;99782.00;4946771;28;20200;-80
2023/12/26 08:26:44;;;;;;;2.03;1.80;;;;;;;9.69;nan;99785.22;4948112;28;20456;-81
2023/12/26 08:29:09;;;;;;;7.00;1.90;;;;;;;9.73;nan;99780.63;4949511;28;20193;-79
2023/12/26 08:31:35;;;;;;;5.43;1.87;;;;;;;9.78;nan;99786.47;4948825;28;20482;-80
2023/12/26 08:34:00;;;;;;;6.57;2.43;;;;;;;9.82;nan;99787.97;4951290;28;20403;-80
2023/12/26 08:36:26;;;;;;;3.53;1.70;;;;;;;9.84;nan;99788.72;4953571;28;20208;-80
2023/12/26 08:38:52;;;;;;;2.97;1.53;;;;;;;9.91;nan;99803.19;4953616;28;20540;-81
2023/12/26 08:41:17;;;;;;;4.33;1.67;;;;;;;9.92;nan;99804.03;4951644;28;20470;-80
2023/12/26 08:43:42;;;;;;;2.73;1.60;;;;;;;9.98;nan;99812.38;4950648;28;20485;-81
2023/12/26 08:46:08;;;;;;;5.87;1.90;;;;;;;10.05;nan;99814.66;4951554;28;20232;-80
2023/12/26 08:48:34;;;;;;;2.90;2.17;;;;;;;10.10;nan;99816.09;4954534;28;20266;-80
2023/12/26 08:51:02;;;;;;;4.22;1.63;;;;;;;10.15;nan;99826.28;4948954;28;20411;-80
2023/12/26 08:53:28;;;;;;;4.65;2.33;;;;;;;10.20;nan;99830.34;4950538;28;20204;-77
2023/12/26 08:55:53;;;;;;;2.63;2.00;;;;;;;10.23;nan;99837.19;4957309;28;20236;-78
2023/12/26 08:58:18;;;;;;;6.13;2.00;;;;;;;10.32;nan;99849.84;4950648;28;20834;-78
2023/12/26 09:00:47;;;;;;;1.97;1.60;;;;;;;10.43;nan;99849.19;4950532;28;20235;-77
2023/12/26 09:03:12;;;;;;;3.75;2.00;;;;;;;10.58;nan;99852.69;4948243;28;20308;-77
2023/12/26 09:05:40;;;;;;;3.73;1.70;;;;;;;10.67;nan;99857.41;4943280;28;20790;-78
2023/12/26 09:08:06;;;;;;;1.77;1.55;;;;;;;10.71;nan;99863.31;4942227;28;20197;-77
2023/12/26 09:10:31;;;;;;;3.25;1.60;;;;;;;10.74;nan;99869.22;4945156;28;20306;-78
2023/12/26 09:12:57;;;;;;;10.90;1.43;;;;;;;10.70;nan;99870.34;4947104;28;20283;-78
2023/12/26 09:15:22;;;;;;;3.30;1.97;;;;;;;10.67;nan;99854.78;4945247;28;20204;-77
2023/12/26 09:17:47;;;;;;;2.30;1.60;;;;;;;10.66;nan;99853.06;4945141;28;20212;-78
2023/12/26 09:20:13;;;;;;;2.17;1.70;;;;;;;10.67;nan;99854.78;4938666;28;20212;-78
2023/12/26 09:22:38;;;;;;;2.00;1.33;;;;;;;10.66;nan;99860.94;4949073;28;20220;-78
2023/12/26 09:25:07;;;;;;;3.13;1.70;;;;;;;10.65;nan;99861.06;4947158;28;20256;-76
2023/12/26 09:27:33;;;;;;;3.40;1.58;;;;;;;10.60;nan;99870.03;4941190;28;20720;-77
2023/12/26 09:29:58;;;;;;;1.97;1.07;;;;;;;10.60;nan;99867.41;4939193;28;20369;-77
2023/12/26 09:32:24;;;;;;;1.60;1.50;;;;;;;10.59;nan;99880.66;4958396;28;20815;-77
2023/12/26 09:34:50;;;;;;;5.23;1.80;;;;;;;10.58;nan;99874.53;4965687;28;20282;-77
2023/12/26 09:37:16;;;;;;;2.95;1.70;;;;;;;10.62;nan;99880.47;4959113;28;20200;-78
2023/12/26 09:39:42;;;;;;;4.65;1.50;;;;;;;10.66;nan;99879.34;4964013;28;20220;-78
2023/12/26 09:42:09;;;;;;;5.70;1.70;;;;;;;10.74;nan;99881.50;4966759;28;20212;-78
2023/12/26 09:44:36;;;;;;;2.50;1.60;;;;;;;10.78;nan;99881.25;4968815;28;20327;-79
2023/12/26 09:47:04;;;;;;;6.47;2.78;;;;;;;10.85;nan;99890.47;4965928;28;20231;-78
2023/12/26 09:49:30;;;;;;;4.85;2.33;;;;;;;10.87;nan;99892.13;4969227;28;20188;-78
2023/12/26 09:51:58;;;;;;;4.50;1.63;;;;;;;10.88;nan;99889.41;4966566;28;20286;-78
2023/12/26 09:54:26;;;;;;;2.95;2.03;;;;;;;10.88;nan;99892.03;4965803;28;20221;-77
2023/12/26 09:56:51;;;;;;;4.20;2.03;;;;;;;10.89;nan;99899.00;4960424;28;20195;-78
2023/12/26 09:59:20;;;;;;;2.20;1.60;;;;;;;10.92;nan;99903.22;4969060;28;20710;-79
2023/12/26 10:01:46;;;;;;;3.70;2.22;;;;;;;10.90;nan;99910.34;4963108;28;20467;-79
2023/12/26 10:04:12;;;;;;;6.85;1.95;;;;;;;10.95;nan;99900.41;4965841;28;21230;-79
2023/12/26 10:06:39;;;;;;;3.17;2.10;;;;;;;11.00;nan;99911.50;4961619;28;20231;-79
2023/12/26 10:09:05;;;;;;;3.38;2.25;;;;;;;11.02;nan;99909.63;4958326;28;20544;-79
2023/12/26 10:11:32;;;;;;;3.17;1.73;;;;;;;11.10;nan;99894.22;4947076;28;20200;-79
2023/12/26 10:13:58;;;;;;;6.55;2.13;;;;;;;11.13;nan;99894.03;4952077;28;20293;-78
2023/12/26 10:16:23;;;;;;;4.13;2.00;;;;;;;11.17;nan;99892.06;4965130;28;20214;-78
2023/12/26 10:18:52;;;;;;;4.33;1.63;;;;;;;11.18;nan;99884.09;4971488;28;20477;-79
2023/12/26 10:21:17;;;;;;;2.55;1.75;;;;;;;11.18;nan;99888.47;4970225;28;20205;-78
2023/12/26 10:23:44;;;;;;;2.47;1.57;;;;;;;11.19;nan;99883.13;4959787;28;20229;-77
2023/12/26 10:26:10;;;;;;;2.15;1.40;;;;;;;11.19;nan;99898.91;4963552;28;20678;-79
2023/12/26 10:28:41;;;;;;;2.97;1.80;;;;;;;11.25;nan;99905.56;4963844;28;20668;-78
2023/12/26 10:31:14;;;;;;;2.70;1.77;;;;;;;11.25;nan;99909.03;4966141;28;20242;-78
2023/12/26 10:33:44;;;;;;;4.22;2.17;;;;;;;11.25;nan;99916.09;4970635;28;20223;-79
2023/12/26 10:36:10;;;;;;;2.83;2.00;;;;;;;11.25;nan;99919.56;4968143;28;20685;-78
2023/12/26 10:38:37;;;;;;;2.17;2.00;;;;;;;11.23;nan;99900.44;4974663;28;20229;-77
2023/12/26 10:41:15;;;;;;;6.35;1.90;;;;;;;11.20;nan;99910.25;4970791;28;20675;-78
2023/12/26 10:43:41;;;;;;;5.07;2.42;;;;;;;11.16;nan;99928.03;4970101;28;20200;-78
2023/12/26 10:46:09;;;;;;;3.30;2.43;;;;;;;11.15;nan;99921.09;4945698;28;20187;-77
2023/12/26 10:48:39;;;;;;;2.75;1.80;;;;;;;11.16;nan;99917.50;4973379;28;20517;-78
2023/12/26 10:51:06;;;;;;;4.18;2.17;;;;;;;11.20;nan;99926.88;4972669;28;20287;-78
2023/12/26 10:53:48;;;;;;;2.95;1.80;;;;;;;11.25;nan;99927.44;4979754;28;20203;-78
2023/12/26 10:56:14;;;;;;;2.08;1.20;;;;;;;11.25;nan;99930.06;4973634;28;20211;-78
2023/12/26 10:58:40;;;;;;;5.75;1.50;;;;;;;11.27;nan;99922.94;4974875;28;20210;-77
2023/12/26 11:01:07;;;;;;;2.60;1.73;;;;;;;11.28;nan;99922.00;4978044;28;20203;-79
2023/12/26 11:03:34;;;;;;;5.55;2.75;;;;;;;11.32;nan;99921.84;4976196;28;20476;-78
2023/12/26 11:05:59;;;;;;;2.60;2.30;;;;;;;11.29;nan;99907.91;4977195;28;20608;-78
2023/12/26 11:08:25;;;;;;;2.20;1.73;;;;;;;11.34;nan;99894.50;4972043;28;20743;-78
2023/12/26 11:10:50;;;;;;;5.00;1.67;;;;;;;11.38;nan;99890.72;4958902;28;20731;-79
2023/12/26 11:13:19;;;;;;;2.17;1.40;;;;;;;11.49;nan;99895.31;4979988;28;20225;-82
2023/12/26 11:15:48;;;;;;;2.60;1.70;;;;;;;11.52;nan;99888.06;4983056;28;20481;-82
2023/12/26 11:18:14;;;;;;;3.90;1.85;;;;;;;11.57;nan;99874.63;4964222;28;20273;-79
2023/12/26 11:20:40;;;;;;;1.73;1.57;;;;;;;11.64;nan;99885.63;4978848;28;20200;-79
2023/12/26 11:23:06;;;;;;;1.60;1.50;;;;;;;11.68;nan;99872.16;4974908;28;20211;-80
2023/12/26 11:25:34;;;;;;;2.83;1.30;;;;;;;11.70;nan;99872.91;4982563;28;20285;-82
2023/12/26 11:28:00;;;;;;;2.88;1.83;;;;;;;11.72;nan;99878.91;4982374;28;20199;-81
2023/12/26 11:30:26;;;;;;;2.58;2.08;;;;;;;11.76;nan;99884.81;4981300;28;20453;-80
2023/12/26 11:32:53;;;;;;;5.95;1.77;;;;;;;11.80;nan;99903.88;4959666;28;20220;-80
2023/12/26 11:35:22;;;;;;;2.28;1.20;;;;;;;11.86;nan;99904.38;4941628;28;20214;-79
2023/12/26 11:37:49;;;;;;;2.10;1.52;;;;;;;11.94;nan;99903.91;4958028;28;20608;-79
2023/12/26 11:40:15;;;;;;;5.70;2.08;;;;;;;12.01;nan;99905.16;4956528;28;20619;-79
2023/12/26 11:42:41;;;;;;;4.10;2.80;;;;;;;12.03;nan;99903.28;4957229;28;20406;-79
2023/12/26 11:45:06;;;;;;;2.30;2.10;;;;;;;12.03;nan;99890.13;4955023;28;20571;-79
2023/12/26 11:47:34;;;;;;;5.47;1.50;;;;;;;12.05;nan;99901.41;4960366;28;20203;-80
2023/12/26 11:50:00;;;;;;;4.13;2.00;;;;;;;12.03;nan;99898.03;4958170;28;20691;-79
2023/12/26 11:52:26;;;;;;;2.17;1.90;;;;;;;12.05;nan;99888.25;4962287;28;20206;-82